Time;durP1;ratioP1;P1;durP2;ratioP2;P2;SDS_P1;SDS_P2;PMS_P1;PMS_P2;Temp;Humidity;BMP_temperature;BMP_pressure;BME280_temperature;BME280_humidity;BME280_pressure;Samples;Min_cycle;Max_cycle;Signal;HPM_P1;HPM_P2
2022/02/22 00:01:55;;;;;;;;;;;;;;;;;;4985039;28;19948;-68
2022/02/22 00:04:22;;;;;;;;;;;;;;;;;;4989088;28;20309;-68
2022/02/22 00:06:49;;;;;;;;;;;;;;;;;;4989838;28;20606;-68
2022/02/22 00:09:16;;;;;;;;;;;;;;;;;;4989523;28;19926;-68
2022/02/22 00:11:43;;;;;;;;;;;;;;;;;;4988777;28;19930;-68
2022/02/22 00:14:11;;;;;;;;;;;;;;;;;;4987220;28;19934;-68
2022/02/22 00:16:38;;;;;;;;;;;;;;;;;;4983900;28;20110;-69
2022/02/22 00:19:05;;;;;;;;;;;;;;;;;;4993633;28;19926;-69
2022/02/22 00:21:32;;;;;;;;;;;;;;;;;;4994301;28;19925;-69
2022/02/22 00:23:59;;;;;;;;;;;;;;;;;;4993212;28;20336;-68
2022/02/22 00:26:26;;;;;;;;;;;;;;;;;;4988150;28;20385;-68
2022/02/22 00:28:53;;;;;;;;;;;;;;;;;;4988137;28;20313;-68
2022/02/22 00:31:20;;;;;;;;;;;;;;;;;;4990770;28;19932;-68
2022/02/22 00:33:47;;;;;;;;;;;;;;;;;;4990453;28;20360;-68
2022/02/22 00:36:14;;;;;;;;;;;;;;;;;;4990427;28;19925;-67
2022/02/22 00:38:42;;;;;;;;;;;;;;;;;;4991611;28;19930;-68
2022/02/22 00:41:09;;;;;;;;;;;;;;;;;;4988099;28;19941;-68
2022/02/22 00:43:36;;;;;;;;;;;;;;;;;;4984499;28;19930;-69
2022/02/22 00:46:03;;;;;;;;;;;;;;;;;;4985619;28;20336;-68
2022/02/22 00:48:30;;;;;;;;;;;;;;;;;;4986143;28;20313;-68
2022/02/22 00:50:57;;;;;;;;;;;;;;;;;;4989226;28;19926;-68
2022/02/22 00:53:24;;;;;;;;;;;;;;;;;;4991452;28;19933;-68
2022/02/22 00:55:51;;;;;;;;;;;;;;;;;;4988507;28;19926;-68
2022/02/22 00:58:18;;;;;;;;;;;;;;;;;;4990451;28;19933;-68
2022/02/22 01:00:45;;;;;;;;;;;;;;;;;;4989131;28;19925;-68
2022/02/22 01:03:12;;;;;;;;;;;;;;;;;;4992284;28;19989;-68
2022/02/22 01:05:39;;;;;;;;;;;;;;;;;;4990708;28;19934;-68
2022/02/22 01:08:06;;;;;;;;;;;;;;;;;;4991420;28;20293;-69
2022/02/22 01:10:32;;;;;;;;;;;;;;;;;;4991077;28;19941;-68
2022/02/22 01:12:59;;;;;;;;;;;;;;;;;;4986786;28;20493;-68
2022/02/22 01:15:26;;;;;;;;;;;;;;;;;;4985532;28;19949;-68
2022/02/22 01:17:53;;;;;;;;;;;;;;;;;;4983936;28;20013;-67
2022/02/22 01:20:20;;;;;;;;;;;;;;;;;;4985317;28;20393;-68
2022/02/22 01:22:51;;;;;;;;;;;;;;;;;;4989176;28;19940;-68
2022/02/22 01:25:18;;;;;;;;;;;;;;;;;;4980901;28;19937;-68
2022/02/22 01:27:45;;;;;;;;;;;;;;;;;;4978661;28;19938;-68
2022/02/22 01:30:12;;;;;;;;;;;;;;;;;;4986987;28;19932;-68
2022/02/22 01:32:39;;;;;;;;;;;;;;;;;;4982187;28;19957;-68
2022/02/22 01:35:06;;;;;;;;;;;;;;;;;;4989433;28;19949;-67
2022/02/22 01:37:33;;;;;;;;;;;;;;;;;;4981611;28;19930;-68
2022/02/22 01:40:00;;;;;;;;;;;;;;;;;;4979945;28;19949;-68
2022/02/22 01:42:27;;;;;;;;;;;;;;;;;;4984245;28;19933;-67
2022/02/22 01:44:54;;;;;;;;;;;;;;;;;;4987718;28;19941;-68
2022/02/22 01:47:21;;;;;;;;;;;;;;;;;;4986017;28;19933;-67
2022/02/22 01:49:48;;;;;;;;;;;;;;;;;;4982242;28;19934;-68
2022/02/22 01:52:15;;;;;;;;;;;;;;;;;;4986169;28;20008;-68
2022/02/22 01:54:42;;;;;;;;;;;;;;;;;;4984031;28;19926;-68
2022/02/22 01:57:09;;;;;;;;;;;;;;;;;;4982242;28;19964;-69
2022/02/22 01:59:36;;;;;;;;;;;;;;;;;;4980206;28;19932;-69
2022/02/22 02:02:03;;;;;;;;;;;;;;;;;;4984177;28;19933;-69
2022/02/22 02:04:30;;;;;;;;;;;;;;;;;;4987140;28;20582;-68
2022/02/22 02:06:57;;;;;;;;;;;;;;;;;;4990526;28;19932;-69
2022/02/22 02:09:24;;;;;;;;;;;;;;;;;;4986200;28;20009;-69
2022/02/22 02:11:50;;;;;;;;;;;;;;;;;;4985382;28;19949;-69
2022/02/22 02:14:17;;;;;;;;;;;;;;;;;;4983932;28;19934;-69
2022/02/22 02:16:44;;;;;;;;;;;;;;;;;;4984572;28;19961;-69
2022/02/22 02:19:11;;;;;;;;;;;;;;;;;;4982018;28;19934;-69
2022/02/22 02:21:38;;;;;;;;;;;;;;;;;;4987864;28;19930;-69
2022/02/22 02:24:05;;;;;;;;;;;;;;;;;;4985119;28;19926;-68
2022/02/22 02:26:32;;;;;;;;;;;;;;;;;;4990549;28;20316;-69
2022/02/22 02:28:59;;;;;;;;;;;;;;;;;;4986353;28;19933;-69
2022/02/22 02:31:26;;;;;;;;;;;;;;;;;;4985076;28;19933;-69
2022/02/22 02:33:53;;;;;;;;;;;;;;;;;;4986550;28;19925;-69
2022/02/22 02:36:20;;;;;;;;;;;;;;;;;;4990696;28;19930;-69
2022/02/22 02:38:47;;;;;;;;;;;;;;;;;;4989294;28;19961;-69
2022/02/22 02:41:14;;;;;;;;;;;;;;;;;;4989316;28;20317;-68
2022/02/22 02:43:40;;;;;;;;;;;;;;;;;;4983463;28;19929;-69
2022/02/22 02:46:07;;;;;;;;;;;;;;;;;;4986412;28;19952;-69
2022/02/22 02:48:35;;;;;;;;;;;;;;;;;;4987940;28;19941;-69
2022/02/22 02:51:02;;;;;;;;;;;;;;;;;;4988127;28;20341;-69
2022/02/22 02:53:29;;;;;;;;;;;;;;;;;;4988272;28;19937;-69
2022/02/22 02:55:56;;;;;;;;;;;;;;;;;;4987956;28;19926;-69
2022/02/22 02:58:23;;;;;;;;;;;;;;;;;;4984396;28;19926;-69
2022/02/22 03:00:50;;;;;;;;;;;;;;;;;;4983843;28;20304;-69
2022/02/22 03:03:17;;;;;;;;;;;;;;;;;;4986980;28;20381;-69
2022/02/22 03:05:44;;;;;;;;;;;;;;;;;;4987041;28;20298;-69
2022/02/22 03:08:10;;;;;;;;;;;;;;;;;;4988299;28;20325;-69
2022/02/22 03:10:37;;;;;;;;;;;;;;;;;;4987654;28;19926;-69
2022/02/22 03:13:04;;;;;;;;;;;;;;;;;;4981141;28;19930;-68
2022/02/22 03:15:31;;;;;;;;;;;;;;;;;;4988142;28;19953;-69
2022/02/22 03:17:58;;;;;;;;;;;;;;;;;;4989088;28;20017;-69
2022/02/22 03:20:25;;;;;;;;;;;;;;;;;;4981735;28;20282;-69
2022/02/22 03:22:53;;;;;;;;;;;;;;;;;;4977442;28;19933;-70
2022/02/22 03:25:20;;;;;;;;;;;;;;;;;;4987191;28;19926;-69
2022/02/22 03:27:47;;;;;;;;;;;;;;;;;;4984602;28;19933;-69
2022/02/22 03:30:15;;;;;;;;;;;;;;;;;;4983503;28;19937;-68
2022/02/22 03:32:42;;;;;;;;;;;;;;;;;;4990266;28;19925;-69
2022/02/22 03:35:09;;;;;;;;;;;;;;;;;;4985161;28;20015;-69
2022/02/22 03:37:40;;;;;;;;;;;;;;;;;;4984406;28;19926;-69
2022/02/22 03:40:07;;;;;;;;;;;;;;;;;;4988951;28;19926;-69
2022/02/22 03:42:34;;;;;;;;;;;;;;;;;;4977779;28;20444;-69
2022/02/22 03:45:01;;;;;;;;;;;;;;;;;;4989810;28;19926;-69
2022/02/22 03:47:28;;;;;;;;;;;;;;;;;;4985565;28;19926;-68
2022/02/22 03:49:55;;;;;;;;;;;;;;;;;;4985492;28;19926;-68
2022/02/22 03:52:22;;;;;;;;;;;;;;;;;;4981546;28;19936;-69
2022/02/22 03:54:49;;;;;;;;;;;;;;;;;;4986682;28;19953;-68
2022/02/22 03:57:16;;;;;;;;;;;;;;;;;;4982692;28;20366;-68
2022/02/22 03:59:43;;;;;;;;;;;;;;;;;;4987255;28;20025;-68
2022/02/22 04:02:10;;;;;;;;;;;;;;;;;;4984248;28;19977;-69
2022/02/22 04:04:36;;;;;;;;;;;;;;;;;;4989575;28;19932;-69
2022/02/22 04:07:03;;;;;;;;;;;;;;;;;;4987766;28;20596;-68
2022/02/22 04:09:30;;;;;;;;;;;;;;;;;;4991718;28;19933;-69
2022/02/22 04:11:57;;;;;;;;;;;;;;;;;;4987630;28;19926;-69
2022/02/22 04:14:24;;;;;;;;;;;;;;;;;;4991916;28;20389;-69
2022/02/22 04:16:51;;;;;;;;;;;;;;;;;;4986167;28;19926;-68
2022/02/22 04:19:18;;;;;;;;;;;;;;;;;;4986468;28;19948;-68
2022/02/22 04:21:45;;;;;;;;;;;;;;;;;;4990903;28;20392;-68
2022/02/22 04:24:12;;;;;;;;;;;;;;;;;;4992065;28;19973;-68
2022/02/22 04:26:39;;;;;;;;;;;;;;;;;;4986541;28;19930;-69
2022/02/22 04:29:06;;;;;;;;;;;;;;;;;;4986769;28;19926;-68
2022/02/22 04:31:33;;;;;;;;;;;;;;;;;;4986655;28;19926;-68
2022/02/22 04:34:00;;;;;;;;;;;;;;;;;;4988325;28;19977;-68
2022/02/22 04:36:27;;;;;;;;;;;;;;;;;;4989739;28;19961;-69
2022/02/22 04:38:54;;;;;;;;;;;;;;;;;;4987779;28;19926;-69
2022/02/22 04:41:21;;;;;;;;;;;;;;;;;;4986508;28;19933;-69
2022/02/22 04:43:48;;;;;;;;;;;;;;;;;;4983972;28;19925;-69
2022/02/22 04:46:15;;;;;;;;;;;;;;;;;;4987301;28;20409;-68
2022/02/22 04:48:42;;;;;;;;;;;;;;;;;;4982979;28;19980;-69
2022/02/22 04:51:09;;;;;;;;;;;;;;;;;;4991447;28;19933;-69
2022/02/22 04:53:36;;;;;;;;;;;;;;;;;;4985452;28;19926;-69
2022/02/22 04:56:03;;;;;;;;;;;;;;;;;;4988004;28;19933;-68
2022/02/22 04:58:30;;;;;;;;;;;;;;;;;;4987903;28;19926;-69
2022/02/22 05:00:57;;;;;;;;;;;;;;;;;;4989623;28;19930;-68
2022/02/22 05:03:24;;;;;;;;;;;;;;;;;;4992919;28;19926;-69
2022/02/22 05:05:52;;;;;;;;;;;;;;;;;;4988177;28;19932;-68
2022/02/22 05:08:19;;;;;;;;;;;;;;;;;;4987942;28;19930;-68
2022/02/22 05:10:46;;;;;;;;;;;;;;;;;;4985969;28;19930;-68
2022/02/22 05:13:13;;;;;;;;;;;;;;;;;;4989513;28;19925;-69
2022/02/22 05:15:40;;;;;;;;;;;;;;;;;;4992265;28;19935;-68
2022/02/22 05:18:07;;;;;;;;;;;;;;;;;;4988933;28;19925;-69
2022/02/22 05:20:34;;;;;;;;;;;;;;;;;;4993417;28;20024;-69
2022/02/22 05:23:01;;;;;;;;;;;;;;;;;;4988921;28;20250;-69
2022/02/22 05:25:29;;;;;;;;;;;;;;;;;;4990779;28;19925;-68
2022/02/22 05:27:56;;;;;;;;;;;;;;;;;;4981462;28;19925;-68
2022/02/22 05:30:23;;;;;;;;;;;;;;;;;;4990345;28;19941;-68
2022/02/22 05:32:49;;;;;;;;;;;;;;;;;;4988313;28;19930;-68
2022/02/22 05:35:16;;;;;;;;;;;;;;;;;;4993457;28;19926;-68
2022/02/22 05:37:43;;;;;;;;;;;;;;;;;;4997303;23;19927;-69
2022/02/22 05:40:10;;;;;;;;;;;;;;;;;;4971714;28;19930;-68
2022/02/22 05:42:37;;;;;;;;;;;;;;;;;;4971587;28;19934;-68
2022/02/22 05:45:04;;;;;;;;;;;;;;;;;;4971823;28;19933;-69
2022/02/22 05:47:32;;;;;;;;;;;;;;;;;;4967394;28;20317;-68
2022/02/22 05:49:59;;;;;;;;;;;;;;;;;;4967773;28;19934;-69
2022/02/22 05:52:26;;;;;;;;;;;;;;;;;;4967676;28;19926;-69
2022/02/22 05:54:53;;;;;;;;;;;;;;;;;;4971311;28;19926;-68
2022/02/22 05:57:20;;;;;;;;;;;;;;;;;;4969279;28;19973;-69
2022/02/22 05:59:47;;;;;;;;;;;;;;;;;;4969050;28;21115;-68
2022/02/22 06:02:14;;;;;;;;;;;;;;;;;;4969288;28;19933;-69
2022/02/22 06:04:41;;;;;;;;;;;;;;;;;;4969756;28;19935;-68
2022/02/22 06:07:08;;;;;;;;;;;;;;;;;;4968169;28;19930;-69
2022/02/22 06:09:35;;;;;;;;;;;;;;;;;;4972625;28;19927;-68
2022/02/22 06:12:02;;;;;;;;;;;;;;;;;;4969757;28;19934;-68
2022/02/22 06:14:29;;;;;;;;;;;;;;;;;;4964102;28;19926;-68
2022/02/22 06:16:56;;;;;;;;;;;;;;;;;;4968283;28;20385;-68
2022/02/22 06:19:23;;;;;;;;;;;;;;;;;;4967466;28;19958;-68
2022/02/22 06:21:50;;;;;;;;;;;;;;;;;;4969835;28;20402;-69
2022/02/22 06:24:17;;;;;;;;;;;;;;;;;;4970611;28;19926;-68
2022/02/22 06:26:44;;;;;;;;;;;;;;;;;;4966945;28;19926;-68
2022/02/22 06:29:11;;;;;;;;;;;;;;;;;;4970818;28;19930;-69
2022/02/22 06:31:38;;;;;;;;;;;;;;;;;;4964332;28;19926;-68
2022/02/22 06:34:05;;;;;;;;;;;;;;;;;;4968021;28;20009;-70
2022/02/22 06:36:32;;;;;;;;;;;;;;;;;;4966953;28;19934;-68
2022/02/22 06:38:59;;;;;;;;;;;;;;;;;;4967393;28;19926;-68
2022/02/22 06:41:26;;;;;;;;;;;;;;;;;;4967538;28;19930;-69
2022/02/22 06:43:53;;;;;;;;;;;;;;;;;;4965512;28;19957;-68
2022/02/22 06:46:20;;;;;;;;;;;;;;;;;;4967387;28;20017;-69
2022/02/22 06:48:47;;;;;;;;;;;;;;;;;;4969236;28;20052;-69
2022/02/22 06:51:14;;;;;;;;;;;;;;;;;;4967624;28;19927;-69
2022/02/22 06:53:41;;;;;;;;;;;;;;;;;;4945710;28;19941;-69
2022/02/22 06:56:08;;;;;;;;;;;;;;;;;;4960975;28;19926;-68
2022/02/22 06:58:35;;;;;;;;;;;;;;;;;;4961566;28;19934;-69
2022/02/22 07:01:02;;;;;;;;;;;;;;;;;;4960601;28;19927;-69
2022/02/22 07:03:29;;;;;;;;;;;;;;;;;;4956856;28;19930;-69
2022/02/22 07:05:56;;;;;;;;;;;;;;;;;;4966220;28;19933;-68
2022/02/22 07:08:23;;;;;;;;;;;;;;;;;;4957010;28;20013;-68
2022/02/22 07:10:50;;;;;;;;;;;;;;;;;;4964285;28;19926;-69
2022/02/22 07:13:17;;;;;;;;;;;;;;;;;;4961381;28;19927;-69
2022/02/22 07:15:44;;;;;;;;;;;;;;;;;;4963882;28;20008;-69
2022/02/22 07:18:11;;;;;;;;;;;;;;;;;;4959573;28;19934;-69
2022/02/22 07:20:38;;;;;;;;;;;;;;;;;;4963583;28;19962;-68
2022/02/22 07:23:05;;;;;;;;;;;;;;;;;;4959697;28;19934;-68
2022/02/22 07:25:32;;;;;;;;;;;;;;;;;;4959405;28;19945;-68
2022/02/22 07:27:59;;;;;;;;;;;;;;;;;;4954746;28;20329;-68
2022/02/22 07:30:26;;;;;;;;;;;;;;;;;;4964043;28;19965;-69
2022/02/22 07:32:53;;;;;;;;;;;;;;;;;;4960612;28;19931;-68
2022/02/22 07:35:20;;;;;;;;;;;;;;;;;;4963674;28;20012;-69
2022/02/22 07:37:47;;;;;;;;;;;;;;;;;;4961380;28;19934;-69
2022/02/22 07:40:14;;;;;;;;;;;;;;;;;;4963893;28;20381;-68
2022/02/22 07:42:41;;;;;;;;;;;;;;;;;;4966875;28;20309;-68
2022/02/22 07:45:08;;;;;;;;;;;;;;;;;;4964485;28;19926;-68
2022/02/22 07:47:35;;;;;;;;;;;;;;;;;;4964851;28;20013;-68
2022/02/22 07:50:03;;;;;;;;;;;;;;;;;;4962820;28;19926;-68
2022/02/22 07:52:31;;;;;;;;;;;;;;;;;;4964299;28;20024;-69
2022/02/22 07:54:58;;;;;;;;;;;;;;;;;;4965710;28;19930;-69
2022/02/22 07:57:25;;;;;;;;;;;;;;;;;;4959132;28;19936;-68
2022/02/22 07:59:52;;;;;;;;;;;;;;;;;;4966835;28;19935;-69
2022/02/22 08:02:18;;;;;;;;;;;;;;;;;;4964814;28;20342;-70
2022/02/22 08:04:45;;;;;;;;;;;;;;;;;;4957412;28;19930;-68
2022/02/22 08:07:12;;;;;;;;;;;;;;;;;;4964001;28;20334;-68
2022/02/22 08:09:39;;;;;;;;;;;;;;;;;;4964419;28;19926;-69
2022/02/22 08:12:06;;;;;;;;;;;;;;;;;;4964960;28;19932;-69
2022/02/22 08:14:33;;;;;;;;;;;;;;;;;;4963946;28;19930;-69
2022/02/22 08:17:00;;;;;;;;;;;;;;;;;;4970342;28;20009;-69
2022/02/22 08:19:27;;;;;;;;;;;;;;;;;;4962064;28;19932;-68
2022/02/22 08:21:54;;;;;;;;;;;;;;;;;;4965309;28;20401;-68
2022/02/22 08:24:21;;;;;;;;;;;;;;;;;;4962196;28;19934;-68
2022/02/22 08:26:48;;;;;;;;;;;;;;;;;;4966942;28;19965;-67
2022/02/22 08:29:15;;;;;;;;;;;;;;;;;;4962233;28;19958;-68
2022/02/22 08:31:42;;;;;;;;;;;;;;;;;;4965062;28;20037;-67
2022/02/22 08:34:09;;;;;;;;;;;;;;;;;;4964199;28;20005;-68
2022/02/22 08:36:36;;;;;;;;;;;;;;;;;;4969320;28;19930;-68
2022/02/22 08:39:03;;;;;;;;;;;;;;;;;;4961722;28;19932;-68
2022/02/22 08:41:30;;;;;;;;;;;;;;;;;;4971447;28;19930;-68
2022/02/22 08:43:57;;;;;;;;;;;;;;;;;;4970264;28;20025;-69
2022/02/22 08:46:24;;;;;;;;;;;;;;;;;;4972703;28;20406;-68
2022/02/22 08:48:51;;;;;;;;;;;;;;;;;;4966363;28;19953;-68
2022/02/22 08:51:18;;;;;;;;;;;;;;;;;;4972214;28;19926;-68
2022/02/22 08:53:45;;;;;;;;;;;;;;;;;;4963952;28;19997;-68
2022/02/22 08:56:13;;;;;;;;;;;;;;;;;;4963109;28;19927;-67
2022/02/22 08:58:39;;;;;;;;;;;;;;;;;;4968715;28;20291;-68
2022/02/22 09:01:06;;;;;;;;;;;;;;;;;;4963718;28;20408;-68
2022/02/22 09:03:33;;;;;;;;;;;;;;;;;;4964332;28;19930;-67
2022/02/22 09:06:00;;;;;;;;;;;;;;;;;;4956894;28;19940;-68
2022/02/22 09:08:27;;;;;;;;;;;;;;;;;;4957410;28;20021;-68
2022/02/22 09:10:54;;;;;;;;;;;;;;;;;;4964660;28;19926;-68
2022/02/22 09:13:21;;;;;;;;;;;;;;;;;;4960264;28;20013;-68
2022/02/22 09:15:49;;;;;;;;;;;;;;;;;;4960521;28;20405;-68
2022/02/22 09:18:16;;;;;;;;;;;;;;;;;;4958941;28;19985;-69
2022/02/22 09:20:43;;;;;;;;;;;;;;;;;;4966046;28;20013;-68
2022/02/22 09:23:10;;;;;;;;;;;;;;;;;;4954586;28;20382;-68
2022/02/22 09:25:36;;;;;;;;;;;;;;;;;;4959754;28;20377;-68
2022/02/22 09:28:04;;;;;;;;;;;;;;;;;;4961030;28;20356;-69
2022/02/22 09:30:33;;;;;;;;;;;;;;;;;;4957887;28;20382;-67
2022/02/22 09:33:00;;;;;;;;;;;;;;;;;;4959796;28;19926;-68
2022/02/22 09:35:27;;;;;;;;;;;;;;;;;;4962235;28;20287;-68
2022/02/22 09:37:54;;;;;;;;;;;;;;;;;;4957460;28;19934;-67
2022/02/22 09:40:21;;;;;;;;;;;;;;;;;;4965862;28;19937;-68
2022/02/22 09:42:48;;;;;;;;;;;;;;;;;;4964295;28;19930;-67
2022/02/22 09:45:15;;;;;;;;;;;;;;;;;;4963444;28;19926;-67
2022/02/22 09:47:42;;;;;;;;;;;;;;;;;;4962701;28;19937;-69
2022/02/22 09:50:09;;;;;;;;;;;;;;;;;;4967319;28;19965;-68
2022/02/22 09:52:36;;;;;;;;;;;;;;;;;;4963979;28;20267;-66
2022/02/22 09:55:03;;;;;;;;;;;;;;;;;;4963599;28;19926;-68
2022/02/22 09:57:30;;;;;;;;;;;;;;;;;;4961348;28;19938;-68
2022/02/22 09:59:57;;;;;;;;;;;;;;;;;;4960775;28;19934;-68
2022/02/22 10:02:24;;;;;;;;;;;;;;;;;;4964288;28;20404;-69
2022/02/22 10:04:51;;;;;;;;;;;;;;;;;;4965003;28;20293;-67
2022/02/22 10:07:18;;;;;;;;;;;;;;;;;;4957821;28;20302;-69
2022/02/22 10:09:45;;;;;;;;;;;;;;;;;;4963997;28;19926;-69
2022/02/22 10:12:13;;;;;;;;;;;;;;;;;;4962792;28;20017;-68
2022/02/22 10:14:40;;;;;;;;;;;;;;;;;;4967287;28;21540;-67
2022/02/22 10:17:07;;;;;;;;;;;;;;;;;;4963866;28;19957;-68
2022/02/22 10:19:34;;;;;;;;;;;;;;;;;;4962944;28;20297;-68
2022/02/22 10:22:01;;;;;;;;;;;;;;;;;;4967054;28;22717;-68
2022/02/22 10:24:28;;;;;;;;;;;;;;;;;;4964823;28;20025;-68
2022/02/22 10:26:55;;;;;;;;;;;;;;;;;;4960513;28;19926;-68
2022/02/22 10:29:24;;;;;;;;;;;;;;;;;;4963844;28;20480;-68
2022/02/22 10:31:51;;;;;;;;;;;;;;;;;;4968871;28;19930;-68
2022/02/22 10:34:18;;;;;;;;;;;;;;;;;;4960936;28;19934;-68
2022/02/22 10:36:45;;;;;;;;;;;;;;;;;;4959357;28;19930;-67
2022/02/22 10:39:12;;;;;;;;;;;;;;;;;;4965237;28;19930;-68
2022/02/22 10:41:39;;;;;;;;;;;;;;;;;;4967248;28;19981;-68
2022/02/22 10:44:06;;;;;;;;;;;;;;;;;;4963285;28;20346;-68
2022/02/22 10:46:35;;;;;;;;;;;;;;;;;;4957954;28;19974;-68
2022/02/22 10:49:02;;;;;;;;;;;;;;;;;;4964180;28;19970;-68
2022/02/22 10:51:29;;;;;;;;;;;;;;;;;;4963574;28;20016;-68
2022/02/22 10:53:56;;;;;;;;;;;;;;;;;;4964492;28;19926;-68
2022/02/22 10:56:23;;;;;;;;;;;;;;;;;;4961839;28;19926;-68
2022/02/22 10:58:50;;;;;;;;;;;;;;;;;;4960856;28;20025;-68
2022/02/22 11:01:19;;;;;;;;;;;;;;;;;;4965821;28;19926;-68
2022/02/22 11:03:46;;;;;;;;;;;;;;;;;;4964647;28;19937;-68
2022/02/22 11:06:13;;;;;;;;;;;;;;;;;;4958023;28;19926;-68
2022/02/22 11:08:40;;;;;;;;;;;;;;;;;;4961406;28;19933;-68
2022/02/22 11:11:07;;;;;;;;;;;;;;;;;;4965115;28;19934;-68
2022/02/22 11:13:34;;;;;;;;;;;;;;;;;;4966398;28;20365;-68
2022/02/22 11:16:01;;;;;;;;;;;;;;;;;;4965270;28;19926;-68
2022/02/22 11:18:28;;;;;;;;;;;;;;;;;;4962547;28;19936;-67
2022/02/22 11:20:55;;;;;;;;;;;;;;;;;;4965284;28;19926;-68
2022/02/22 11:23:21;;;;;;;;;;;;;;;;;;4968068;28;19932;-68
2022/02/22 11:25:49;;;;;;;;;;;;;;;;;;4962032;28;19933;-68
2022/02/22 11:28:16;;;;;;;;;;;;;;;;;;4960378;28;20396;-68
2022/02/22 11:30:43;;;;;;;;;;;;;;;;;;4957558;28;19934;-68
2022/02/22 11:33:10;;;;;;;;;;;;;;;;;;4966333;28;19934;-69
2022/02/22 11:35:37;;;;;;;;;;;;;;;;;;4953841;28;19926;-68
2022/02/22 11:38:04;;;;;;;;;;;;;;;;;;4986990;23;19929;-71
2022/02/22 11:40:31;;;;;;;;;;;;;;;;;;4979722;28;20389;-70
2022/02/22 11:42:58;;;;;;;;;;;;;;;;;;4975776;28;19933;-71
2022/02/22 11:45:24;;;;;;;;;;;;;;;;;;4984171;28;20027;-71
2022/02/22 11:47:51;;;;;;;;;;;;;;;;;;4985855;28;20026;-71
2022/02/22 11:50:18;;;;;;;;;;;;;;;;;;4984655;28;20305;-71
2022/02/22 11:52:45;;;;;;;;;;;;;;;;;;4987077;28;19926;-72
2022/02/22 11:55:12;;;;;;;;;;;;;;;;;;4980558;28;19948;-70
2022/02/22 11:57:39;;;;;;;;;;;;;;;;;;4980741;28;20378;-70
2022/02/22 12:00:06;;;;;;;;;;;;;;;;;;4978365;28;19926;-71
2022/02/22 12:02:33;;;;;;;;;;;;;;;;;;4974738;28;19941;-70
2022/02/22 12:05:00;;;;;;;;;;;;;;;;;;4986178;28;19926;-70
2022/02/22 12:07:27;;;;;;;;;;;;;;;;;;4974025;28;20324;-70
2022/02/22 12:09:54;;;;;;;;;;;;;;;;;;4978880;28;19969;-70
2022/02/22 12:12:21;;;;;;;;;;;;;;;;;;4983363;28;19957;-69
2022/02/22 12:14:48;;;;;;;;;;;;;;;;;;4982835;28;20353;-70
2022/02/22 12:17:15;;;;;;;;;;;;;;;;;;4978209;28;20102;-70
2022/02/22 12:19:42;;;;;;;;;;;;;;;;;;4983081;28;19926;-69
2022/02/22 12:22:09;;;;;;;;;;;;;;;;;;4982431;28;19926;-70
2022/02/22 12:24:36;;;;;;;;;;;;;;;;;;4987330;28;20029;-71
2022/02/22 12:27:03;;;;;;;;;;;;;;;;;;4982522;28;20286;-71
2022/02/22 12:29:33;;;;;;;;;;;;;;;;;;4989075;28;19926;-71
2022/02/22 12:32:01;;;;;;;;;;;;;;;;;;4984427;28;20004;-72
2022/02/22 12:34:30;;;;;;;;;;;;;;;;;;4990491;28;19926;-70
2022/02/22 12:36:58;;;;;;;;;;;;;;;;;;4990741;28;20274;-70
2022/02/22 12:39:25;;;;;;;;;;;;;;;;;;4986331;28;20349;-69
2022/02/22 12:41:52;;;;;;;;;;;;;;;;;;4980856;28;20076;-71
2022/02/22 12:44:19;;;;;;;;;;;;;;;;;;4989992;28;19925;-71
2022/02/22 12:46:46;;;;;;;;;;;;;;;;;;4986508;28;19926;-71
2022/02/22 12:49:12;;;;;;;;;;;;;;;;;;4985220;28;19926;-71
2022/02/22 12:51:41;;;;;;;;;;;;;;;;;;4987699;28;19930;-70
2022/02/22 12:54:08;;;;;;;;;;;;;;;;;;4987772;28;19926;-70
2022/02/22 12:56:35;;;;;;;;;;;;;;;;;;4983917;28;19925;-70
2022/02/22 12:59:02;;;;;;;;;;;;;;;;;;4983643;28;20418;-70
2022/02/22 13:01:28;;;;;;;;;;;;;;;;;;4986865;28;19926;-71
2022/02/22 13:03:56;;;;;;;;;;;;;;;;;;4983340;28;19927;-71
2022/02/22 13:06:23;;;;;;;;;;;;;;;;;;4989582;28;19957;-72
2022/02/22 13:08:50;;;;;;;;;;;;;;;;;;4983460;28;19980;-71
2022/02/22 13:11:17;;;;;;;;;;;;;;;;;;4984506;28;19926;-70
2022/02/22 13:13:44;;;;;;;;;;;;;;;;;;4984985;28;20408;-70
2022/02/22 13:16:11;;;;;;;;;;;;;;;;;;4984293;28;19926;-70
2022/02/22 13:18:38;;;;;;;;;;;;;;;;;;4988000;28;20377;-70
2022/02/22 13:21:05;;;;;;;;;;;;;;;;;;4985474;28;20346;-71
2022/02/22 13:23:33;;;;;;;;;;;;;;;;;;4984652;28;19930;-70
2022/02/22 13:26:00;;;;;;;;;;;;;;;;;;4985620;28;19932;-70
2022/02/22 13:28:27;;;;;;;;;;;;;;;;;;4985202;28;19926;-71
2022/02/22 13:30:54;;;;;;;;;;;;;;;;;;4983186;28;20432;-70
2022/02/22 13:33:21;;;;;;;;;;;;;;;;;;4982852;28;19926;-70
2022/02/22 13:35:48;;;;;;;;;;;;;;;;;;4985715;28;20416;-70
2022/02/22 13:38:15;;;;;;;;;;;;;;;;;;4986115;28;20389;-70
2022/02/22 13:40:41;;;;;;;;;;;;;;;;;;4983902;28;19970;-69
2022/02/22 13:43:09;;;;;;;;;;;;;;;;;;4979589;28;19934;-70
2022/02/22 13:45:36;;;;;;;;;;;;;;;;;;4981586;28;20321;-70
2022/02/22 13:48:03;;;;;;;;;;;;;;;;;;4984210;28;19964;-70
2022/02/22 13:50:30;;;;;;;;;;;;;;;;;;4985224;28;19985;-70
2022/02/22 13:52:57;;;;;;;;;;;;;;;;;;4987341;28;19972;-69
2022/02/22 13:55:24;;;;;;;;;;;;;;;;;;4983515;28;19930;-69
2022/02/22 13:57:51;;;;;;;;;;;;;;;;;;4982559;28;20385;-70
2022/02/22 14:00:18;;;;;;;;;;;;;;;;;;4988598;28;20045;-70
2022/02/22 14:02:45;;;;;;;;;;;;;;;;;;4983285;28;19933;-70
2022/02/22 14:05:12;;;;;;;;;;;;;;;;;;4983724;28;19930;-70
2022/02/22 14:07:41;;;;;;;;;;;;;;;;;;4982582;28;20385;-71
2022/02/22 14:10:08;;;;;;;;;;;;;;;;;;4976382;28;19932;-70
2022/02/22 14:12:34;;;;;;;;;;;;;;;;;;4978437;28;19961;-70
2022/02/22 14:15:01;;;;;;;;;;;;;;;;;;4978248;28;19933;-70
2022/02/22 14:17:31;;;;;;;;;;;;;;;;;;4985333;28;20350;-70
2022/02/22 14:19:58;;;;;;;;;;;;;;;;;;4979519;28;20037;-70
2022/02/22 14:22:25;;;;;;;;;;;;;;;;;;4977357;28;20378;-70
2022/02/22 14:24:52;;;;;;;;;;;;;;;;;;4986818;28;19933;-71
2022/02/22 14:27:19;;;;;;;;;;;;;;;;;;4985166;28;19973;-71
2022/02/22 14:29:48;;;;;;;;;;;;;;;;;;4981199;28;20315;-70
2022/02/22 14:32:14;;;;;;;;;;;;;;;;;;4978448;28;20389;-69
2022/02/22 14:34:41;;;;;;;;;;;;;;;;;;4981494;28;19933;-70
2022/02/22 14:37:08;;;;;;;;;;;;;;;;;;4984320;28;19925;-70
2022/02/22 14:39:35;;;;;;;;;;;;;;;;;;4984874;28;19926;-71
2022/02/22 14:42:02;;;;;;;;;;;;;;;;;;4985384;28;19925;-70
2022/02/22 14:44:29;;;;;;;;;;;;;;;;;;4984891;28;20017;-70
2022/02/22 14:46:56;;;;;;;;;;;;;;;;;;4976956;28;19929;-70
2022/02/22 14:49:23;;;;;;;;;;;;;;;;;;4976619;28;19933;-69
2022/02/22 14:51:51;;;;;;;;;;;;;;;;;;4985108;28;19942;-69
2022/02/22 14:54:18;;;;;;;;;;;;;;;;;;4980943;28;19925;-69
2022/02/22 14:56:45;;;;;;;;;;;;;;;;;;4979556;28;20270;-71
2022/02/22 14:59:11;;;;;;;;;;;;;;;;;;4982092;28;19925;-69
2022/02/22 15:01:38;;;;;;;;;;;;;;;;;;4978578;28;19932;-69
2022/02/22 15:04:05;;;;;;;;;;;;;;;;;;4989164;28;19934;-70
2022/02/22 15:06:32;;;;;;;;;;;;;;;;;;4979056;28;19925;-70
2022/02/22 15:08:59;;;;;;;;;;;;;;;;;;4982503;28;19973;-70
2022/02/22 15:11:26;;;;;;;;;;;;;;;;;;4978710;28;20297;-69
2022/02/22 15:13:53;;;;;;;;;;;;;;;;;;4983953;28;19932;-72
2022/02/22 15:16:20;;;;;;;;;;;;;;;;;;4988925;28;20346;-70
2022/02/22 15:18:47;;;;;;;;;;;;;;;;;;4989540;28;19932;-70
2022/02/22 15:21:14;;;;;;;;;;;;;;;;;;4987555;28;19936;-71
2022/02/22 15:23:41;;;;;;;;;;;;;;;;;;4987482;28;20012;-71
2022/02/22 15:26:08;;;;;;;;;;;;;;;;;;4981950;28;19935;-71
2022/02/22 15:28:35;;;;;;;;;;;;;;;;;;4986562;28;19934;-70
2022/02/22 15:31:02;;;;;;;;;;;;;;;;;;4983240;28;19934;-70
2022/02/22 15:33:29;;;;;;;;;;;;;;;;;;4985289;28;19933;-69
2022/02/22 15:35:57;;;;;;;;;;;;;;;;;;4984751;28;19972;-70
2022/02/22 15:38:24;;;;;;;;;;;;;;;;;;4983994;28;20323;-69
2022/02/22 15:40:52;;;;;;;;;;;;;;;;;;4977764;28;19926;-71
2022/02/22 15:43:19;;;;;;;;;;;;;;;;;;4988926;28;19972;-71
2022/02/22 15:45:46;;;;;;;;;;;;;;;;;;4984670;28;19941;-71
2022/02/22 15:48:13;;;;;;;;;;;;;;;;;;4988636;28;19933;-72
2022/02/22 15:50:40;;;;;;;;;;;;;;;;;;4982915;28;19926;-72
2022/02/22 15:53:07;;;;;;;;;;;;;;;;;;4980185;28;19925;-73
2022/02/22 15:55:35;;;;;;;;;;;;;;;;;;4981595;28;20294;-72
2022/02/22 15:58:02;;;;;;;;;;;;;;;;;;4984034;28;19973;-74
2022/02/22 16:00:30;;;;;;;;;;;;;;;;;;4984990;28;19934;-72
2022/02/22 16:02:57;;;;;;;;;;;;;;;;;;4987978;28;19972;-72
2022/02/22 16:05:24;;;;;;;;;;;;;;;;;;4991322;28;19936;-72
2022/02/22 16:07:53;;;;;;;;;;;;;;;;;;4988482;28;20313;-72
2022/02/22 16:10:20;;;;;;;;;;;;;;;;;;4983917;28;19932;-72
2022/02/22 16:12:47;;;;;;;;;;;;;;;;;;4981155;28;19940;-73
2022/02/22 16:15:14;;;;;;;;;;;;;;;;;;4986864;28;19933;-71
2022/02/22 16:17:40;;;;;;;;;;;;;;;;;;4984833;28;20317;-72
2022/02/22 16:20:08;;;;;;;;;;;;;;;;;;4984065;28;19926;-72
2022/02/22 16:22:35;;;;;;;;;;;;;;;;;;4990647;28;19968;-72
2022/02/22 16:25:02;;;;;;;;;;;;;;;;;;4987360;28;19929;-73
2022/02/22 16:27:29;;;;;;;;;;;;;;;;;;4983347;28;20459;-72
2022/02/22 16:29:56;;;;;;;;;;;;;;;;;;4984254;28;20409;-71
2022/02/22 16:32:23;;;;;;;;;;;;;;;;;;4990393;28;19961;-72
2022/02/22 16:34:50;;;;;;;;;;;;;;;;;;4990639;28;20402;-72
2022/02/22 16:37:16;;;;;;;;;;;;;;;;;;4992844;28;20032;-71
2022/02/22 16:39:43;;;;;;;;;;;;;;;;;;4989831;28;19937;-71
2022/02/22 16:42:10;;;;;;;;;;;;;;;;;;4986817;28;19926;-72
2022/02/22 16:44:37;;;;;;;;;;;;;;;;;;4985961;28;19926;-72